Main page
METAR-TAF:

METAR-TAF

Airports :

Qaisumah, Saudi Arabia

Al Qaisumah/Hafr Al Batin Airport

latitude: 28-19N, longitude: 046-07E, elevation: 358 m

Current weather observation

The report was made 41 minutes ago, at 03:00 UTC
Wind 6 kt from the West
Temperature 29°C
Humidity 35%
Pressure 1010 hPa
Visibility: 3000 m
Few clouds at a height of 3500 ft
widespread dust

METAR: OEPA 290300Z 26006KT 3000 DU FEW035 29/12 Q1010 NOSIG

Time: 06:41 (03:41 UTC)

Forecast

The report was made 4 hours and 41 minutes ago, at 23:00 UTC
Forecast valid from 29 at 00 UTC to 30 at 06 UTC
Wind 6 kt from the South with gusts up to 16 kt
Visibility: 7000 m
Few clouds at a height of 4000 ft
Temporary
from 29 at 09 UTC to 29 at 18 UTC
Visibility: 3500 m
Few clouds at a height of 2500 ft, Cumulonimbus.
Scattered clouds at a height of 3000 ft
Scattered clouds at a height of 10000 ft
Blowing dust, thunderstorm, rain

TAF: OEPA 282300Z 2900/3006 19006G16KT 7000 FEW040 TEMPO 2909/2918 BLDU TSRA 3500 FEW025CB SCT030 SCT100

Weather observations and forecasts of more than 4000 airports (METAR and TAF reports).

The available stations are represented by yellow and red dots on the map.

Hover mouse over dot to see the name of the station.

Then click to see weather observations and forecasts.

To change the map : click on the green buttons with a black cross to zoom in, on the green button with a dash to zoom out, or on the green arrows for adjacent maps.


METAR-TAF: